Time;durP1;ratioP1;P1;durP2;ratioP2;P2;SDS_P1;SDS_P2;PMS_P1;PMS_P2;Temp;Humidity;BMP_temperature;BMP_pressure;BME280_temperature;BME280_humidity;BME280_pressure;Samples;Min_cycle;Max_cycle;Signal;HPM_P1;HPM_P2
2023/05/19 00:01:30;;;;;;;4.20;1.83;;;;;16.30;102595.00;;;;5088411;28;20228;-76
2023/05/19 00:04:01;;;;;;;1.92;1.60;;;;;16.20;102593.00;;;;5087228;28;20198;-75
2023/05/19 00:06:30;;;;;;;5.25;2.20;;;;;16.20;102590.00;;;;5088437;28;20762;-75
2023/05/19 00:08:59;;;;;;;3.55;1.85;;;;;16.20;102592.00;;;;5088147;28;20252;-75
2023/05/19 00:11:27;;;;;;;4.45;1.85;;;;;16.10;102595.00;;;;5088321;28;20198;-75
2023/05/19 00:13:56;;;;;;;4.47;2.25;;;;;16.10;102589.00;;;;5088280;28;20206;-75
2023/05/19 00:16:27;;;;;;;3.58;1.98;;;;;16.00;102582.00;;;;5087787;28;20190;-76
2023/05/19 00:18:55;;;;;;;4.57;1.85;;;;;16.00;102578.00;;;;5088396;28;20686;-75
2023/05/19 00:21:23;;;;;;;4.43;1.75;;;;;16.00;102577.00;;;;5087521;28;20194;-76
2023/05/19 00:23:50;;;;;;;4.63;1.92;;;;;16.00;102570.00;;;;5088447;28;20205;-75
2023/05/19 00:26:17;;;;;;;4.88;2.53;;;;;15.90;102566.00;;;;5087671;28;20205;-75
2023/05/19 00:28:45;;;;;;;5.65;2.05;;;;;15.90;102571.00;;;;5087881;28;20201;-76
2023/05/19 00:31:12;;;;;;;3.75;2.15;;;;;15.80;102564.00;;;;5087664;28;20230;-75
2023/05/19 00:33:40;;;;;;;4.93;2.05;;;;;15.80;102565.00;;;;5086534;28;20218;-75
2023/05/19 00:36:08;;;;;;;6.30;1.88;;;;;15.80;102566.00;;;;5087168;28;20659;-75
2023/05/19 00:38:37;;;;;;;2.97;1.88;;;;;15.70;102563.00;;;;5088286;28;20665;-75
2023/05/19 00:41:06;;;;;;;3.90;2.30;;;;;15.70;102567.00;;;;5087529;28;21233;-76
2023/05/19 00:43:34;;;;;;;4.13;2.17;;;;;15.70;102566.00;;;;5087657;28;20221;-75
2023/05/19 00:46:01;;;;;;;2.95;1.55;;;;;15.60;102563.00;;;;5088849;28;20193;-75
2023/05/19 00:48:29;;;;;;;3.33;1.92;;;;;15.60;102561.00;;;;5089368;28;20584;-75
2023/05/19 00:51:02;;;;;;;4.28;1.92;;;;;15.60;102564.00;;;;5088371;28;20587;-76
2023/05/19 00:53:30;;;;;;;5.90;2.63;;;;;15.60;102566.00;;;;5087934;28;20253;-75
2023/05/19 00:55:59;;;;;;;4.00;1.92;;;;;15.50;102559.00;;;;5087974;28;20719;-75
2023/05/19 00:58:29;;;;;;;4.43;2.38;;;;;15.50;102564.00;;;;5087604;28;20570;-76
2023/05/19 01:01:01;;;;;;;5.53;2.28;;;;;15.50;102557.00;;;;5088532;28;20213;-76
2023/05/19 01:03:30;;;;;;;5.38;2.28;;;;;15.50;102562.00;;;;5085373;28;20206;-76
2023/05/19 01:06:03;;;;;;;3.78;2.33;;;;;15.40;102568.00;;;;5088012;28;20546;-75
2023/05/19 01:08:31;;;;;;;2.53;1.98;;;;;15.40;102564.00;;;;5090226;28;20201;-75
2023/05/19 01:10:59;;;;;;;6.13;2.45;;;;;15.40;102564.00;;;;5092142;28;20210;-76
2023/05/19 01:13:26;;;;;;;3.45;2.08;;;;;15.40;102565.00;;;;5091174;28;20261;-75
2023/05/19 01:16:06;;;;;;;2.58;1.70;;;;;15.30;102557.00;;;;5092161;28;20202;-76
2023/05/19 01:18:45;;;;;;;5.22;2.35;;;;;15.30;102565.00;;;;5092426;28;20190;-75
2023/05/19 01:21:35;;;;;;;3.88;2.17;;;;;15.20;102569.00;;;;5091716;28;20197;-75
2023/05/19 01:24:13;;;;;;;4.63;2.20;;;;;15.30;102569.00;;;;5090668;28;20194;-75
2023/05/19 01:27:00;;;;;;;4.88;1.90;;;;;15.20;102563.00;;;;5091787;28;20202;-75
2023/05/19 01:29:42;;;;;;;7.13;2.42;;;;;15.10;102559.00;;;;5091464;28;20198;-76
2023/05/19 01:32:11;;;;;;;5.38;2.92;;;;;15.20;102550.00;;;;5091057;28;20241;-75
2023/05/19 01:34:45;;;;;;;4.45;2.30;;;;;15.10;102541.00;;;;5090302;28;20202;-76
2023/05/19 01:37:14;;;;;;;3.65;2.42;;;;;15.20;102548.00;;;;5091144;28;20593;-75
2023/05/19 01:39:43;;;;;;;8.48;2.70;;;;;15.10;102545.00;;;;5091388;28;20271;-76
2023/05/19 01:42:12;;;;;;;4.68;2.67;;;;;15.10;102546.00;;;;5090624;28;20186;-76
2023/05/19 01:44:40;;;;;;;4.07;2.42;;;;;15.10;102550.00;;;;5091559;28;20199;-76
2023/05/19 01:47:08;;;;;;;4.15;2.30;;;;;15.10;102538.00;;;;5091006;28;20206;-75
2023/05/19 01:49:37;;;;;;;4.28;2.35;;;;;15.00;102550.00;;;;5090780;28;20293;-76
2023/05/19 01:52:05;;;;;;;4.40;2.17;;;;;15.00;102544.00;;;;5089644;28;20191;-75
2023/05/19 01:54:32;;;;;;;3.03;1.98;;;;;15.00;102543.00;;;;5090611;28;20197;-75
2023/05/19 01:57:05;;;;;;;3.78;2.47;;;;;14.90;102540.00;;;;5089896;28;20213;-75
2023/05/19 01:59:46;;;;;;;6.15;2.58;;;;;14.90;102539.00;;;;5090773;28;20203;-75
2023/05/19 02:02:25;;;;;;;5.10;2.70;;;;;14.90;102531.00;;;;5090919;28;20194;-76
2023/05/19 02:04:59;;;;;;;5.10;2.08;;;;;14.90;102532.00;;;;5090600;28;20213;-76
2023/05/19 02:07:35;;;;;;;2.97;2.38;;;;;14.80;102534.00;;;;5091120;28;20190;-75
2023/05/19 02:10:07;;;;;;;3.60;1.83;;;;;14.80;102528.00;;;;5090649;28;20186;-75
2023/05/19 02:12:36;;;;;;;2.58;2.05;;;;;14.80;102533.00;;;;5091352;28;20637;-75
2023/05/19 02:15:10;;;;;;;4.18;2.67;;;;;14.70;102536.00;;;;5089899;28;20206;-75
2023/05/19 02:17:43;;;;;;;3.63;2.42;;;;;14.70;102537.00;;;;5091022;28;20560;-75
2023/05/19 02:20:12;;;;;;;5.05;2.58;;;;;14.70;102530.00;;;;5090179;28;20207;-75
2023/05/19 02:22:39;;;;;;;3.55;2.30;;;;;14.70;102531.00;;;;5089973;28;20205;-75
2023/05/19 02:25:07;;;;;;;4.15;2.20;;;;;14.70;102524.00;;;;5090118;28;20225;-75
2023/05/19 02:27:36;;;;;;;6.10;2.38;;;;;14.70;102526.00;;;;5089972;28;20293;-76
2023/05/19 02:30:03;;;;;;;5.28;1.95;;;;;14.60;102528.00;;;;5090446;28;20206;-75
2023/05/19 02:32:31;;;;;;;4.00;2.20;;;;;14.60;102522.00;;;;5089385;28;20232;-75
2023/05/19 02:34:58;;;;;;;6.30;2.55;;;;;14.60;102518.00;;;;5090914;28;20198;-75
2023/05/19 02:37:28;;;;;;;4.45;2.63;;;;;14.50;102515.00;;;;5089848;28;20198;-76
2023/05/19 02:39:55;;;;;;;5.03;2.40;;;;;14.60;102513.00;;;;5090278;28;20202;-75
2023/05/19 02:42:22;;;;;;;4.35;2.40;;;;;14.50;102515.00;;;;5089935;28;20202;-76
2023/05/19 02:44:50;;;;;;;4.20;2.50;;;;;14.50;102514.00;;;;5089800;28;20202;-76
2023/05/19 02:47:17;;;;;;;8.73;2.45;;;;;14.50;102511.00;;;;5089701;28;20231;-76
2023/05/19 02:49:45;;;;;;;5.35;2.67;;;;;14.50;102510.00;;;;5089551;28;21048;-76
2023/05/19 02:52:12;;;;;;;3.42;2.65;;;;;14.40;102503.00;;;;5089048;28;20252;-76
2023/05/19 02:54:41;;;;;;;3.67;2.45;;;;;14.40;102501.00;;;;5089347;28;20226;-76
2023/05/19 02:57:08;;;;;;;5.93;2.63;;;;;14.40;102498.00;;;;5088225;28;20210;-76
2023/05/19 02:59:35;;;;;;;5.78;3.38;;;;;14.40;102500.00;;;;5090007;28;20559;-75
2023/05/19 03:02:03;;;;;;;5.97;2.58;;;;;14.30;102497.00;;;;5088926;28;20610;-76
2023/05/19 03:04:30;;;;;;;6.40;2.80;;;;;14.30;102489.00;;;;5089073;28;20583;-76
2023/05/19 03:06:58;;;;;;;7.65;3.20;;;;;14.30;102490.00;;;;5089684;28;20212;-76
2023/05/19 03:09:25;;;;;;;4.70;2.78;;;;;14.30;102491.00;;;;5088542;28;20675;-75
2023/05/19 03:11:54;;;;;;;8.00;2.90;;;;;14.30;102488.00;;;;5088964;28;20190;-76
2023/05/19 03:14:22;;;;;;;5.45;2.63;;;;;14.30;102480.00;;;;5089103;28;20269;-76
2023/05/19 03:16:49;;;;;;;4.68;2.78;;;;;14.30;102491.00;;;;5085489;28;20291;-76
2023/05/19 03:19:17;;;;;;;5.05;2.72;;;;;14.30;102489.00;;;;5068520;28;20199;-77
2023/05/19 03:21:44;;;;;;;3.90;2.20;;;;;14.30;102492.00;;;;5069191;28;20214;-77
2023/05/19 03:24:11;;;;;;;7.72;3.03;;;;;14.20;102493.00;;;;5070478;28;20198;-76
2023/05/19 03:26:39;;;;;;;7.55;3.70;;;;;14.20;102491.00;;;;5088695;28;20575;-76
2023/05/19 03:29:07;;;;;;;3.30;2.63;;;;;14.20;102490.00;;;;5089132;28;20251;-76
2023/05/19 03:31:35;;;;;;;5.70;2.67;;;;;14.20;102490.00;;;;5089314;28;20264;-76
2023/05/19 03:34:02;;;;;;;5.75;2.70;;;;;14.10;102484.00;;;;5088380;28;20229;-76
2023/05/19 03:36:31;;;;;;;5.50;2.85;;;;;14.10;102496.00;;;;5089707;28;20210;-75
2023/05/19 03:38:58;;;;;;;5.25;3.35;;;;;14.10;102497.00;;;;5089525;28;20195;-76
2023/05/19 03:41:26;;;;;;;4.15;2.97;;;;;14.10;102498.00;;;;5088066;28;20206;-76
2023/05/19 03:43:53;;;;;;;3.72;2.50;;;;;14.10;102491.00;;;;5088747;28;20591;-76
2023/05/19 03:46:22;;;;;;;6.13;3.28;;;;;14.10;102492.00;;;;5087869;28;20198;-76
2023/05/19 03:48:49;;;;;;;3.92;2.85;;;;;14.10;102491.00;;;;5088911;28;20186;-77
2023/05/19 03:51:16;;;;;;;8.75;2.88;;;;;14.10;102485.00;;;;5088587;28;20196;-76
2023/05/19 03:53:44;;;;;;;5.45;2.85;;;;;14.10;102486.00;;;;5087916;28;20226;-76
2023/05/19 03:56:12;;;;;;;4.75;2.80;;;;;14.10;102481.00;;;;5087687;28;20255;-76
2023/05/19 03:58:42;;;;;;;9.00;3.00;;;;;14.10;102481.00;;;;5088161;28;20592;-76
2023/05/19 04:01:10;;;;;;;4.25;2.75;;;;;14.10;102488.00;;;;5088369;28;20205;-76
2023/05/19 04:03:39;;;;;;;5.15;3.17;;;;;14.10;102478.00;;;;5088577;28;20190;-76
2023/05/19 04:06:07;;;;;;;4.03;2.72;;;;;14.10;102483.00;;;;5088032;28;20204;-76
2023/05/19 04:08:34;;;;;;;4.10;2.70;;;;;14.10;102491.00;;;;5088434;28;20204;-76
2023/05/19 04:11:01;;;;;;;5.53;2.53;;;;;14.10;102484.00;;;;5088584;28;20233;-76
2023/05/19 04:13:29;;;;;;;4.18;2.60;;;;;14.10;102485.00;;;;5087679;28;20347;-76
2023/05/19 04:15:56;;;;;;;7.32;2.75;;;;;14.10;102483.00;;;;5088382;28;20198;-76
2023/05/19 04:18:23;;;;;;;5.32;2.90;;;;;14.10;102488.00;;;;5087470;28;20205;-76
2023/05/19 04:20:52;;;;;;;7.32;3.13;;;;;14.10;102491.00;;;;5088880;28;20208;-75
2023/05/19 04:23:19;;;;;;;8.77;3.50;;;;;14.10;102497.00;;;;5087342;28;20210;-76
2023/05/19 04:25:47;;;;;;;3.13;2.50;;;;;14.10;102502.00;;;;5087758;28;20209;-76
2023/05/19 04:28:14;;;;;;;7.90;3.53;;;;;14.10;102496.00;;;;5086981;28;20571;-76
2023/05/19 04:30:45;;;;;;;6.18;3.28;;;;;14.20;102495.00;;;;5088068;28;20226;-75
2023/05/19 04:33:12;;;;;;;6.00;2.97;;;;;14.20;102493.00;;;;5087237;28;20717;-75
2023/05/19 04:35:40;;;;;;;5.40;3.30;;;;;14.20;102496.00;;;;5087745;28;20632;-76
2023/05/19 04:38:08;;;;;;;4.10;2.70;;;;;14.20;102507.00;;;;5087796;28;20245;-76
2023/05/19 04:40:36;;;;;;;4.10;3.22;;;;;14.20;102501.00;;;;5087730;28;20666;-75
2023/05/19 04:43:03;;;;;;;5.55;3.17;;;;;14.20;102490.00;;;;5088960;28;20214;-75
2023/05/19 04:45:31;;;;;;;6.43;3.60;;;;;14.30;102500.00;;;;5091690;28;20198;-76
2023/05/19 04:47:59;;;;;;;5.30;2.95;;;;;14.30;102501.00;;;;5091990;28;20240;-75
2023/05/19 04:50:28;;;;;;;5.80;3.50;;;;;14.30;102510.00;;;;5091601;28;20210;-75
2023/05/19 04:52:57;;;;;;;6.78;3.13;;;;;14.40;102509.00;;;;5091087;28;20201;-75
2023/05/19 04:55:26;;;;;;;6.95;3.50;;;;;14.40;102502.00;;;;5091211;28;20194;-76
2023/05/19 04:57:53;;;;;;;4.32;2.72;;;;;14.40;102511.00;;;;5088389;28;20198;-76
2023/05/19 05:00:21;;;;;;;3.65;2.88;;;;;14.40;102502.00;;;;5091819;28;20202;-76
2023/05/19 05:02:49;;;;;;;6.60;3.58;;;;;14.50;102506.00;;;;5092037;28;20242;-76
2023/05/19 05:05:17;;;;;;;4.05;3.13;;;;;14.50;102512.00;;;;5090898;28;20564;-76
2023/05/19 05:07:44;;;;;;;4.25;3.20;;;;;14.60;102511.00;;;;5091938;28;20210;-75
2023/05/19 05:10:12;;;;;;;5.25;2.78;;;;;14.60;102501.00;;;;5090894;28;20202;-76
2023/05/19 05:12:41;;;;;;;4.53;3.15;;;;;14.60;102503.00;;;;5092269;28;20211;-77
2023/05/19 05:15:10;;;;;;;9.90;3.60;;;;;14.70;102506.00;;;;5091687;28;20222;-77
2023/05/19 05:17:37;;;;;;;6.95;3.20;;;;;14.80;102512.00;;;;5090379;28;20209;-77
2023/05/19 05:20:06;;;;;;;4.10;2.72;;;;;14.80;102507.00;;;;5091327;28;20198;-77
2023/05/19 05:22:34;;;;;;;5.70;3.15;;;;;14.90;102519.00;;;;5092487;28;20259;-78
2023/05/19 05:25:02;;;;;;;5.78;3.10;;;;;14.90;102515.00;;;;5091328;28;20210;-77
2023/05/19 05:27:30;;;;;;;5.15;3.20;;;;;15.00;102519.00;;;;5091342;28;20676;-77
2023/05/19 05:29:58;;;;;;;5.13;3.13;;;;;15.00;102515.00;;;;5091378;28;20206;-75
2023/05/19 05:32:26;;;;;;;3.65;2.88;;;;;15.10;102513.00;;;;5091641;28;20589;-74
2023/05/19 05:34:53;;;;;;;6.13;2.83;;;;;15.10;102508.00;;;;5091914;28;20226;-77
2023/05/19 05:37:20;;;;;;;6.93;3.28;;;;;15.20;102510.00;;;;5091318;28;20190;-77
2023/05/19 05:39:47;;;;;;;4.03;3.00;;;;;15.30;102513.00;;;;5091336;28;20205;-77
2023/05/19 05:42:15;;;;;;;7.75;3.65;;;;;15.40;102522.00;;;;5090653;28;20609;-77
2023/05/19 05:44:42;;;;;;;4.07;3.20;;;;;15.40;102520.00;;;;5091067;28;20206;-77
2023/05/19 05:47:12;;;;;;;4.35;3.05;;;;;15.40;102522.00;;;;5090497;28;20209;-77
2023/05/19 05:49:40;;;;;;;6.57;3.55;;;;;15.50;102520.00;;;;5091538;28;20255;-78
2023/05/19 05:52:11;;;;;;;3.95;3.13;;;;;15.60;102519.00;;;;5090854;28;20201;-78
2023/05/19 05:54:38;;;;;;;6.45;3.58;;;;;15.60;102531.00;;;;5091225;28;20222;-77
2023/05/19 05:57:07;;;;;;;8.07;3.30;;;;;15.70;102529.00;;;;5089958;28;20640;-77
2023/05/19 05:59:34;;;;;;;5.65;2.90;;;;;15.80;102532.00;;;;5070888;28;20198;-76
2023/05/19 06:02:01;;;;;;;4.95;3.10;;;;;15.90;102523.00;;;;5070889;28;20207;-77
2023/05/19 06:04:30;;;;;;;8.25;3.00;;;;;15.90;102519.00;;;;5070176;28;20217;-77
2023/05/19 06:07:00;;;;;;;4.18;3.20;;;;;16.10;102524.00;;;;5070281;28;20198;-77
2023/05/19 06:09:29;;;;;;;6.78;3.70;;;;;16.10;102520.00;;;;5069638;28;20284;-77
2023/05/19 06:11:57;;;;;;;5.57;3.35;;;;;16.20;102520.00;;;;5090522;28;20617;-77
2023/05/19 06:14:25;;;;;;;7.13;3.58;;;;;16.30;102524.00;;;;5088697;28;20222;-77
2023/05/19 06:16:52;;;;;;;6.35;3.08;;;;;16.40;102525.00;;;;5070930;28;20202;-77
2023/05/19 06:19:20;;;;;;;6.70;2.80;;;;;16.60;102531.00;;;;5069178;28;20203;-78
2023/05/19 06:21:48;;;;;;;3.63;2.60;;;;;16.60;102521.00;;;;5070323;28;20198;-78
2023/05/19 06:24:15;;;;;;;6.85;2.90;;;;;16.70;102523.00;;;;5070004;28;20195;-77
2023/05/19 06:26:43;;;;;;;5.00;3.17;;;;;16.80;102519.00;;;;5070123;28;20208;-78
2023/05/19 06:29:10;;;;;;;6.63;2.70;;;;;16.90;102518.00;;;;5069500;28;20211;-78
2023/05/19 06:31:37;;;;;;;7.72;2.90;;;;;17.10;102523.00;;;;5075004;28;20607;-74
2023/05/19 06:34:05;;;;;;;6.13;3.20;;;;;17.20;102522.00;;;;5089483;28;20602;-74
2023/05/19 06:36:34;;;;;;;4.13;2.80;;;;;17.30;102519.00;;;;5089679;28;20226;-74
2023/05/19 06:39:02;;;;;;;8.20;3.35;;;;;17.40;102519.00;;;;5088843;28;20580;-74
2023/05/19 06:41:29;;;;;;;4.88;2.40;;;;;17.50;102520.00;;;;5089745;28;20211;-74
2023/05/19 06:43:57;;;;;;;5.03;2.53;;;;;17.60;102522.00;;;;5089561;28;20225;-75
2023/05/19 06:46:24;;;;;;;5.72;2.90;;;;;17.70;102520.00;;;;5089767;28;20202;-74
2023/05/19 06:48:51;;;;;;;4.63;2.95;;;;;17.80;102519.00;;;;5089932;28;20236;-77
2023/05/19 06:51:20;;;;;;;7.25;3.53;;;;;17.90;102521.00;;;;5089817;28;20213;-77
2023/05/19 06:53:49;;;;;;;4.97;2.47;;;;;18.00;102520.00;;;;5090298;28;20202;-78
2023/05/19 06:56:18;;;;;;;5.25;3.00;;;;;18.10;102519.00;;;;5089500;28;20205;-78
2023/05/19 06:58:45;;;;;;;3.25;2.42;;;;;18.20;102521.00;;;;5090347;28;20202;-78
2023/05/19 07:01:13;;;;;;;6.30;2.65;;;;;18.30;102521.00;;;;5089110;28;20195;-78
2023/05/19 07:03:40;;;;;;;4.65;2.30;;;;;18.40;102525.00;;;;5075085;28;20199;-77
2023/05/19 07:06:08;;;;;;;6.47;2.47;;;;;18.50;102530.00;;;;5078059;28;20229;-77
2023/05/19 07:08:36;;;;;;;4.63;2.67;;;;;18.60;102531.00;;;;5088454;28;20206;-78
2023/05/19 07:11:03;;;;;;;8.48;2.70;;;;;18.70;102528.00;;;;5089702;28;20260;-78
2023/05/19 07:13:32;;;;;;;5.07;2.58;;;;;18.80;102532.00;;;;5089386;28;20194;-77
2023/05/19 07:15:59;;;;;;;4.13;2.15;;;;;18.80;102532.00;;;;5089909;28;20255;-77
2023/05/19 07:18:30;;;;;;;3.25;2.60;;;;;18.90;102528.00;;;;5089367;28;20209;-78
2023/05/19 07:20:57;;;;;;;5.63;2.60;;;;;19.00;102532.00;;;;5089361;28;20198;-77
2023/05/19 07:23:25;;;;;;;5.85;3.30;;;;;19.10;102522.00;;;;5089280;28;20634;-78
2023/05/19 07:25:55;;;;;;;4.35;2.83;;;;;19.10;102530.00;;;;5089608;28;20205;-77
2023/05/19 07:28:23;;;;;;;5.38;2.60;;;;;19.20;102526.00;;;;5089244;28;20749;-78
2023/05/19 07:30:51;;;;;;;4.05;2.70;;;;;19.30;102532.00;;;;5088780;28;20198;-75
2023/05/19 07:33:19;;;;;;;5.47;2.45;;;;;19.40;102528.00;;;;5089489;28;20194;-75
2023/05/19 07:35:46;;;;;;;4.63;2.60;;;;;19.50;102530.00;;;;5089843;28;20232;-76
2023/05/19 07:38:13;;;;;;;7.28;2.78;;;;;19.60;102525.00;;;;5087785;28;20574;-74
2023/05/19 07:40:41;;;;;;;4.07;2.70;;;;;19.70;102533.00;;;;5087180;28;20206;-77
2023/05/19 07:43:08;;;;;;;8.50;2.92;;;;;19.80;102542.00;;;;5087763;28;20206;-77
2023/05/19 07:45:35;;;;;;;5.15;2.50;;;;;19.80;102539.00;;;;5089174;28;20211;-76
2023/05/19 07:48:04;;;;;;;4.88;2.60;;;;;19.80;102527.00;;;;5088990;28;20209;-76
2023/05/19 07:50:31;;;;;;;4.50;2.85;;;;;19.90;102527.00;;;;5088981;28;20222;-77
2023/05/19 07:52:59;;;;;;;4.03;2.70;;;;;20.00;102533.00;;;;5088231;28;20196;-76
2023/05/19 07:55:26;;;;;;;6.75;3.03;;;;;20.10;102529.00;;;;5088542;28;20231;-76
2023/05/19 07:57:53;;;;;;;5.85;2.63;;;;;20.30;102528.00;;;;5088769;28;20198;-76
2023/05/19 08:00:21;;;;;;;5.78;3.25;;;;;20.40;102522.00;;;;5087904;28;20552;-76
2023/05/19 08:02:48;;;;;;;4.30;2.45;;;;;20.50;102521.00;;;;5089407;28;20190;-75
2023/05/19 08:05:17;;;;;;;11.32;2.65;;;;;20.70;102521.00;;;;5088345;28;20197;-75
2023/05/19 08:07:44;;;;;;;2.53;2.00;;;;;20.80;102523.00;;;;5088025;28;20190;-76
2023/05/19 08:10:14;;;;;;;5.70;2.58;;;;;20.90;102521.00;;;;5087802;28;20278;-78
2023/05/19 08:12:42;;;;;;;3.00;1.92;;;;;21.00;102520.00;;;;5087396;28;20203;-76
2023/05/19 08:15:13;;;;;;;2.33;1.95;;;;;21.10;102515.00;;;;5088249;28;20230;-76
2023/05/19 08:17:40;;;;;;;4.05;2.03;;;;;21.20;102519.00;;;;5088355;28;20209;-76
2023/05/19 08:20:09;;;;;;;4.30;2.10;;;;;21.30;102518.00;;;;5087783;28;20230;-76
2023/05/19 08:22:37;;;;;;;5.00;2.05;;;;;21.40;102516.00;;;;5087836;28;20194;-75
2023/05/19 08:25:06;;;;;;;3.45;2.05;;;;;21.50;102512.00;;;;5087881;28;20668;-77
2023/05/19 08:27:34;;;;;;;4.03;2.10;;;;;21.70;102517.00;;;;5087476;28;20194;-78
2023/05/19 08:30:01;;;;;;;5.68;2.17;;;;;21.80;102512.00;;;;5088212;28;20198;-77
2023/05/19 08:32:28;;;;;;;4.70;2.10;;;;;21.90;102518.00;;;;5087537;28;20234;-77
2023/05/19 08:34:56;;;;;;;2.78;1.80;;;;;22.10;102508.00;;;;5087704;28;20249;-78
2023/05/19 08:37:23;;;;;;;6.40;2.47;;;;;22.20;102510.00;;;;5086216;28;20206;-78
2023/05/19 08:39:53;;;;;;;3.35;1.88;;;;;22.40;102501.00;;;;5087449;28;20197;-77
2023/05/19 08:42:21;;;;;;;3.90;1.95;;;;;22.50;102506.00;;;;5087156;28;20263;-76
2023/05/19 08:44:48;;;;;;;1.80;1.45;;;;;22.60;102501.00;;;;5087900;28;20197;-76
2023/05/19 08:47:17;;;;;;;3.88;1.55;;;;;22.70;102491.00;;;;5086939;28;20198;-76
2023/05/19 08:49:46;;;;;;;3.58;1.90;;;;;22.90;102485.00;;;;5087602;28;20664;-76
2023/05/19 08:52:22;;;;;;;4.05;1.40;;;;;23.10;102494.00;;;;5087190;28;20243;-75
2023/05/19 08:54:59;;;;;;;4.03;1.65;;;;;23.20;102488.00;;;;5087758;28;20691;-76
2023/05/19 08:57:28;;;;;;;2.75;1.88;;;;;23.50;102483.00;;;;5086706;28;20198;-77
2023/05/19 08:59:55;;;;;;;2.38;1.48;;;;;23.70;102493.00;;;;5087657;28;20220;-78
2023/05/19 09:02:23;;;;;;;1.63;1.10;;;;;23.80;102489.00;;;;5087754;28;20245;-76
2023/05/19 09:04:51;;;;;;;2.15;1.38;;;;;24.00;102477.00;;;;5088118;28;20205;-77
2023/05/19 09:07:19;;;;;;;4.60;2.00;;;;;24.10;102481.00;;;;5086552;28;20233;-78
2023/05/19 09:09:47;;;;;;;3.22;1.17;;;;;24.20;102475.00;;;;5087975;28;20207;-77
2023/05/19 09:12:16;;;;;;;2.60;1.20;;;;;24.40;102469.00;;;;5086495;28;20206;-78
2023/05/19 09:14:43;;;;;;;1.60;0.90;;;;;24.50;102476.00;;;;5087694;28;20210;-75
2023/05/19 09:17:11;;;;;;;3.50;1.40;;;;;24.60;102480.00;;;;5087668;28;20190;-77
2023/05/19 09:19:43;;;;;;;2.67;1.00;;;;;24.70;102482.00;;;;5086929;28;20288;-76
2023/05/19 09:22:11;;;;;;;2.80;1.00;;;;;24.80;102469.00;;;;5087312;28;20210;-76
2023/05/19 09:24:40;;;;;;;1.83;1.00;;;;;24.80;102470.00;;;;5087450;28;20203;-77
2023/05/19 09:27:07;;;;;;;3.38;1.10;;;;;24.90;102466.00;;;;5087583;28;20191;-77
2023/05/19 09:29:36;;;;;;;1.65;0.80;;;;;24.90;102472.00;;;;5089018;28;20190;-77
2023/05/19 09:32:04;;;;;;;4.78;1.17;;;;;25.00;102467.00;;;;5091025;28;20222;-77
2023/05/19 09:34:32;;;;;;;7.95;1.50;;;;;25.10;102481.00;;;;5090794;28;20283;-77
2023/05/19 09:36:59;;;;;;;2.85;1.38;;;;;25.10;102468.00;;;;5090747;28;20205;-76
2023/05/19 09:39:27;;;;;;;2.58;1.15;;;;;25.20;102473.00;;;;5089119;28;20267;-78
2023/05/19 09:41:57;;;;;;;3.42;1.30;;;;;25.20;102465.00;;;;5090287;28;20652;-77
2023/05/19 09:44:28;;;;;;;1.08;0.80;;;;;25.30;102470.00;;;;5088671;28;20214;-77
2023/05/19 09:46:58;;;;;;;5.40;1.20;;;;;25.40;102478.00;;;;5089855;28;20205;-76
2023/05/19 09:49:28;;;;;;;1.13;0.60;;;;;25.40;102461.00;;;;5090439;28;20205;-77
2023/05/19 09:51:56;;;;;;;2.97;1.20;;;;;25.50;102469.00;;;;5090829;28;20589;-75
2023/05/19 09:54:24;;;;;;;1.92;1.10;;;;;25.50;102459.00;;;;5090333;28;20222;-77
2023/05/19 09:56:57;;;;;;;3.72;1.38;;;;;25.60;102472.00;;;;5090478;28;20232;-76
2023/05/19 09:59:25;;;;;;;1.40;1.00;;;;;25.60;102458.00;;;;5090056;28;20206;-76
2023/05/19 10:01:56;;;;;;;2.70;1.27;;;;;25.60;102467.00;;;;5089330;28;20213;-77
2023/05/19 10:04:25;;;;;;;3.38;1.15;;;;;25.70;102469.00;;;;5090498;28;20205;-76
2023/05/19 10:06:53;;;;;;;4.28;1.40;;;;;25.80;102465.00;;;;5090278;28;20278;-76
2023/05/19 10:09:24;;;;;;;4.03;1.60;;;;;25.80;102471.00;;;;5087725;28;20277;-76
2023/05/19 10:11:53;;;;;;;3.13;1.05;;;;;25.80;102458.00;;;;5090347;28;20202;-78
2023/05/19 10:14:22;;;;;;;2.38;1.10;;;;;25.80;102470.00;;;;5089967;28;20213;-77
2023/05/19 10:16:51;;;;;;;4.30;1.38;;;;;25.80;102467.00;;;;5090395;28;20219;-76
2023/05/19 10:19:22;;;;;;;5.72;1.38;;;;;25.80;102464.00;;;;5090398;28;20205;-77
2023/05/19 10:21:50;;;;;;;5.18;1.70;;;;;25.80;102462.00;;;;5090224;28;20202;-77
2023/05/19 10:24:18;;;;;;;2.25;1.20;;;;;25.80;102466.00;;;;5090507;28;20288;-76
2023/05/19 10:26:49;;;;;;;1.85;1.00;;;;;25.70;102461.00;;;;5091306;28;20206;-77
2023/05/19 10:29:21;;;;;;;1.95;0.93;;;;;25.70;102459.00;;;;5090180;28;20197;-77
2023/05/19 10:31:52;;;;;;;3.55;1.38;;;;;25.70;102455.00;;;;5090328;28;20238;-76
2023/05/19 10:34:58;;;;;;;3.10;1.10;;;;;25.60;102455.00;;;;5090274;28;20194;-77
2023/05/19 10:37:34;;;;;;;2.15;1.00;;;;;25.60;102453.00;;;;5085239;28;20202;-77
2023/05/19 10:40:09;;;;;;;2.42;1.10;;;;;25.70;102445.00;;;;5089948;28;20194;-77
2023/05/19 10:42:44;;;;;;;3.70;1.63;;;;;25.70;102447.00;;;;5090179;28;20595;-77
2023/05/19 10:45:17;;;;;;;3.63;1.40;;;;;25.70;102447.00;;;;5089277;28;20749;-77
2023/05/19 10:47:44;;;;;;;2.08;1.05;;;;;25.80;102446.00;;;;5090583;28;20557;-77
2023/05/19 10:50:13;;;;;;;4.22;1.50;;;;;25.80;102444.00;;;;5089323;28;20202;-78
2023/05/19 10:52:41;;;;;;;2.10;1.25;;;;;25.80;102439.00;;;;5090163;28;20205;-75
2023/05/19 10:55:14;;;;;;;5.72;1.55;;;;;25.80;102438.00;;;;5089897;28;20660;-75
2023/05/19 10:57:55;;;;;;;1.65;1.10;;;;;25.70;102437.00;;;;5090349;28;20217;-76
2023/05/19 11:00:32;;;;;;;2.00;1.40;;;;;25.70;102431.00;;;;5089593;28;20225;-75
2023/05/19 11:03:13;;;;;;;2.70;1.38;;;;;25.70;102428.00;;;;5089528;28;20202;-76
2023/05/19 11:05:44;;;;;;;2.53;1.30;;;;;25.90;102435.00;;;;5069834;28;20277;-77
2023/05/19 11:08:12;;;;;;;3.30;1.30;;;;;26.00;102438.00;;;;5089421;28;20679;-75
2023/05/19 11:10:43;;;;;;;2.10;1.08;;;;;26.00;102446.00;;;;5090173;28;20210;-76
2023/05/19 11:13:19;;;;;;;2.28;1.00;;;;;26.00;102436.00;;;;5088282;28;20206;-76
2023/05/19 11:15:48;;;;;;;1.63;1.35;;;;;26.10;102428.00;;;;5080411;28;20226;-77
2023/05/19 11:18:16;;;;;;;2.58;1.30;;;;;26.10;102425.00;;;;5072193;28;20194;-75
2023/05/19 11:20:56;;;;;;;2.55;1.15;;;;;26.20;102429.00;;;;5088948;28;20199;-76
2023/05/19 11:23:26;;;;;;;5.63;1.10;;;;;26.20;102423.00;;;;5088796;28;20225;-77
2023/05/19 11:25:53;;;;;;;3.42;1.13;;;;;26.20;102422.00;;;;5089325;28;20209;-78
2023/05/19 11:28:24;;;;;;;3.97;1.70;;;;;26.30;102421.00;;;;5089236;28;20202;-77
2023/05/19 11:30:53;;;;;;;4.03;1.25;;;;;26.30;102430.00;;;;5089090;28;20547;-77
2023/05/19 11:33:25;;;;;;;2.17;1.15;;;;;26.30;102423.00;;;;5088826;28;20198;-75
2023/05/19 11:35:57;;;;;;;3.42;1.60;;;;;26.30;102426.00;;;;5089442;28;20427;-76
2023/05/19 11:38:25;;;;;;;2.70;1.48;;;;;26.30;102422.00;;;;5088854;28;20210;-76
2023/05/19 11:40:54;;;;;;;3.08;1.45;;;;;26.40;102410.00;;;;5089443;28;20202;-76
2023/05/19 11:43:23;;;;;;;2.13;1.30;;;;;26.40;102412.00;;;;5087001;28;20292;-76
2023/05/19 11:45:51;;;;;;;3.80;1.40;;;;;26.40;102413.00;;;;5088457;28;20205;-77
2023/05/19 11:48:21;;;;;;;2.67;1.05;;;;;26.40;102409.00;;;;5088050;28;20568;-75
2023/05/19 11:50:48;;;;;;;2.85;1.38;;;;;26.40;102406.00;;;;5089147;28;20561;-76
2023/05/19 11:53:18;;;;;;;10.60;1.30;;;;;26.40;102408.00;;;;5087750;28;20586;-75
2023/05/19 11:55:47;;;;;;;3.30;1.15;;;;;26.30;102407.00;;;;5089252;28;20971;-76
2023/05/19 11:58:14;;;;;;;1.77;1.30;;;;;26.40;102403.00;;;;5088842;28;20198;-77
2023/05/19 12:00:44;;;;;;;2.90;1.50;;;;;26.40;102389.00;;;;5088213;28;20203;-77
2023/05/19 12:03:12;;;;;;;3.38;1.38;;;;;26.40;102409.00;;;;5088894;28;20209;-77
2023/05/19 12:05:45;;;;;;;2.92;1.17;;;;;26.30;102403.00;;;;5089192;28;20194;-76
2023/05/19 12:08:12;;;;;;;2.55;1.13;;;;;26.40;102394.00;;;;5087912;28;20190;-77
2023/05/19 12:10:41;;;;;;;2.40;1.15;;;;;26.40;102400.00;;;;5088931;28;20202;-77
2023/05/19 12:13:08;;;;;;;3.83;1.20;;;;;26.50;102399.00;;;;5087512;28;20290;-78
2023/05/19 12:15:36;;;;;;;5.07;1.25;;;;;26.50;102410.00;;;;5088340;28;20198;-79
2023/05/19 12:18:04;;;;;;;3.10;0.90;;;;;26.50;102409.00;;;;5088300;28;20251;-79